sensor_id;sensor_type;location;lat;lon;timestamp;P1;durP1;ratioP1;P2;durP2;ratioP2
64052;SDS011;50299;49.524;8.536;2023-10-19T00:01:15;6.85;;;5.03;;
64052;SDS011;50299;49.524;8.536;2023-10-19T00:03:43;10.63;;;6.22;;
64052;SDS011;50299;49.524;8.536;2023-10-19T00:06:10;7.65;;;5.85;;
64052;SDS011;50299;49.524;8.536;2023-10-19T00:08:37;7.68;;;5.38;;
64052;SDS011;50299;49.524;8.536;2023-10-19T00:11:10;7.00;;;4.97;;
64052;SDS011;50299;49.524;8.536;2023-10-19T00:13:47;7.85;;;5.32;;
64052;SDS011;50299;49.524;8.536;2023-10-19T00:16:20;8.20;;;6.35;;
64052;SDS011;50299;49.524;8.536;2023-10-19T00:18:52;7.45;;;5.47;;
64052;SDS011;50299;49.524;8.536;2023-10-19T00:21:19;8.93;;;5.57;;
64052;SDS011;50299;49.524;8.536;2023-10-19T00:23:47;9.60;;;6.05;;
64052;SDS011;50299;49.524;8.536;2023-10-19T00:26:15;9.57;;;6.15;;
64052;SDS011;50299;49.524;8.536;2023-10-19T00:28:45;8.38;;;6.35;;
64052;SDS011;50299;49.524;8.536;2023-10-19T00:31:15;6.95;;;5.22;;
64052;SDS011;50299;49.524;8.536;2023-10-19T00:33:42;9.10;;;5.90;;
64052;SDS011;50299;49.524;8.536;2023-10-19T00:36:09;7.53;;;5.35;;
64052;SDS011;50299;49.524;8.536;2023-10-19T00:38:39;7.93;;;6.55;;
64052;SDS011;50299;49.524;8.536;2023-10-19T00:41:17;8.85;;;6.13;;
64052;SDS011;50299;49.524;8.536;2023-10-19T00:43:50;6.70;;;5.28;;
64052;SDS011;50299;49.524;8.536;2023-10-19T00:46:23;8.75;;;5.80;;
64052;SDS011;50299;49.524;8.536;2023-10-19T00:48:59;9.23;;;6.22;;
64052;SDS011;50299;49.524;8.536;2023-10-19T00:51:33;8.50;;;5.70;;
64052;SDS011;50299;49.524;8.536;2023-10-19T00:54:06;7.90;;;6.72;;
64052;SDS011;50299;49.524;8.536;2023-10-19T00:56:41;7.78;;;5.32;;
64052;SDS011;50299;49.524;8.536;2023-10-19T00:59:22;7.22;;;5.20;;
64052;SDS011;50299;49.524;8.536;2023-10-19T01:01:53;8.32;;;5.85;;
64052;SDS011;50299;49.524;8.536;2023-10-19T01:04:22;8.65;;;6.28;;
64052;SDS011;50299;49.524;8.536;2023-10-19T01:06:49;6.10;;;4.60;;
64052;SDS011;50299;49.524;8.536;2023-10-19T01:09:33;8.23;;;5.47;;
64052;SDS011;50299;49.524;8.536;2023-10-19T01:12:07;7.70;;;6.07;;
64052;SDS011;50299;49.524;8.536;2023-10-19T01:15:07;9.32;;;6.25;;
64052;SDS011;50299;49.524;8.536;2023-10-19T01:17:46;8.15;;;6.00;;
64052;SDS011;50299;49.524;8.536;2023-10-19T01:20:20;6.93;;;5.30;;
64052;SDS011;50299;49.524;8.536;2023-10-19T01:25:55;10.13;;;5.80;;
64052;SDS011;50299;49.524;8.536;2023-10-19T01:28:33;7.93;;;5.80;;
64052;SDS011;50299;49.524;8.536;2023-10-19T01:31:15;6.55;;;5.65;;
64052;SDS011;50299;49.524;8.536;2023-10-19T01:34:00;8.57;;;6.13;;
64052;SDS011;50299;49.524;8.536;2023-10-19T01:36:35;8.65;;;6.28;;
64052;SDS011;50299;49.524;8.536;2023-10-19T01:39:11;7.88;;;5.78;;
64052;SDS011;50299;49.524;8.536;2023-10-19T01:41:38;8.73;;;5.65;;
64052;SDS011;50299;49.524;8.536;2023-10-19T01:44:07;7.97;;;6.00;;
64052;SDS011;50299;49.524;8.536;2023-10-19T01:46:39;7.50;;;5.88;;
64052;SDS011;50299;49.524;8.536;2023-10-19T01:49:06;7.47;;;5.90;;
64052;SDS011;50299;49.524;8.536;2023-10-19T01:51:34;7.85;;;5.82;;
64052;SDS011;50299;49.524;8.536;2023-10-19T01:54:05;9.88;;;6.65;;
64052;SDS011;50299;49.524;8.536;2023-10-19T01:56:33;6.63;;;5.72;;
64052;SDS011;50299;49.524;8.536;2023-10-19T01:59:02;7.85;;;6.18;;
64052;SDS011;50299;49.524;8.536;2023-10-19T02:01:30;9.65;;;6.40;;
64052;SDS011;50299;49.524;8.536;2023-10-19T02:03:59;8.32;;;5.82;;
64052;SDS011;50299;49.524;8.536;2023-10-19T02:06:28;9.18;;;6.55;;
64052;SDS011;50299;49.524;8.536;2023-10-19T02:09:10;8.05;;;5.82;;
64052;SDS011;50299;49.524;8.536;2023-10-19T02:11:53;7.80;;;5.70;;
64052;SDS011;50299;49.524;8.536;2023-10-19T02:14:27;8.40;;;5.80;;
64052;SDS011;50299;49.524;8.536;2023-10-19T02:16:58;7.65;;;6.70;;
64052;SDS011;50299;49.524;8.536;2023-10-19T02:19:27;8.18;;;6.03;;
64052;SDS011;50299;49.524;8.536;2023-10-19T02:21:56;8.43;;;5.85;;
64052;SDS011;50299;49.524;8.536;2023-10-19T02:24:25;8.95;;;5.85;;
64052;SDS011;50299;49.524;8.536;2023-10-19T02:26:52;7.70;;;6.18;;
64052;SDS011;50299;49.524;8.536;2023-10-19T02:29:21;8.25;;;5.82;;
64052;SDS011;50299;49.524;8.536;2023-10-19T02:31:48;7.65;;;5.22;;
64052;SDS011;50299;49.524;8.536;2023-10-19T02:34:16;7.18;;;5.40;;
64052;SDS011;50299;49.524;8.536;2023-10-19T02:36:43;6.03;;;5.43;;
64052;SDS011;50299;49.524;8.536;2023-10-19T02:39:11;6.22;;;5.15;;
64052;SDS011;50299;49.524;8.536;2023-10-19T02:41:41;8.93;;;5.95;;
64052;SDS011;50299;49.524;8.536;2023-10-19T02:44:19;9.02;;;5.88;;
64052;SDS011;50299;49.524;8.536;2023-10-19T02:46:52;10.63;;;6.20;;
64052;SDS011;50299;49.524;8.536;2023-10-19T02:49:25;6.38;;;4.95;;
64052;SDS011;50299;49.524;8.536;2023-10-19T02:51:52;7.93;;;5.45;;
64052;SDS011;50299;49.524;8.536;2023-10-19T02:54:20;9.27;;;6.30;;
64052;SDS011;50299;49.524;8.536;2023-10-19T02:56:54;10.38;;;5.47;;
64052;SDS011;50299;49.524;8.536;2023-10-19T02:59:25;9.07;;;5.90;;
64052;SDS011;50299;49.524;8.536;2023-10-19T03:01:55;7.75;;;5.53;;
64052;SDS011;50299;49.524;8.536;2023-10-19T03:04:34;6.53;;;5.25;;
64052;SDS011;50299;49.524;8.536;2023-10-19T03:07:03;10.82;;;6.20;;
64052;SDS011;50299;49.524;8.536;2023-10-19T03:09:31;10.70;;;6.95;;
64052;SDS011;50299;49.524;8.536;2023-10-19T03:12:05;9.52;;;6.47;;
64052;SDS011;50299;49.524;8.536;2023-10-19T03:14:36;8.88;;;5.82;;
64052;SDS011;50299;49.524;8.536;2023-10-19T03:17:03;8.00;;;5.53;;
64052;SDS011;50299;49.524;8.536;2023-10-19T03:19:31;8.18;;;5.32;;
64052;SDS011;50299;49.524;8.536;2023-10-19T03:21:57;7.15;;;5.35;;
64052;SDS011;50299;49.524;8.536;2023-10-19T03:24:26;8.48;;;5.55;;
64052;SDS011;50299;49.524;8.536;2023-10-19T03:27:03;10.82;;;6.40;;
64052;SDS011;50299;49.524;8.536;2023-10-19T03:30:03;7.78;;;5.47;;
64052;SDS011;50299;49.524;8.536;2023-10-19T03:32:31;8.15;;;5.30;;
64052;SDS011;50299;49.524;8.536;2023-10-19T03:35:01;6.90;;;5.75;;
64052;SDS011;50299;49.524;8.536;2023-10-19T03:37:30;7.55;;;5.28;;
64052;SDS011;50299;49.524;8.536;2023-10-19T03:39:57;7.78;;;5.68;;
64052;SDS011;50299;49.524;8.536;2023-10-19T03:42:25;7.13;;;5.20;;
64052;SDS011;50299;49.524;8.536;2023-10-19T03:44:59;8.73;;;5.40;;
64052;SDS011;50299;49.524;8.536;2023-10-19T03:47:28;9.93;;;6.03;;
64052;SDS011;50299;49.524;8.536;2023-10-19T03:50:01;7.25;;;5.38;;
64052;SDS011;50299;49.524;8.536;2023-10-19T03:52:40;6.72;;;5.28;;
64052;SDS011;50299;49.524;8.536;2023-10-19T03:55:07;7.20;;;5.07;;
64052;SDS011;50299;49.524;8.536;2023-10-19T03:57:50;9.13;;;5.30;;
64052;SDS011;50299;49.524;8.536;2023-10-19T04:00:18;7.03;;;5.35;;
64052;SDS011;50299;49.524;8.536;2023-10-19T04:02:45;6.43;;;5.25;;
64052;SDS011;50299;49.524;8.536;2023-10-19T04:05:12;7.95;;;4.97;;
64052;SDS011;50299;49.524;8.536;2023-10-19T04:07:46;9.05;;;4.93;;
64052;SDS011;50299;49.524;8.536;2023-10-19T04:10:16;9.95;;;5.35;;
64052;SDS011;50299;49.524;8.536;2023-10-19T04:13:02;8.05;;;5.85;;
64052;SDS011;50299;49.524;8.536;2023-10-19T04:15:30;9.80;;;6.13;;
64052;SDS011;50299;49.524;8.536;2023-10-19T04:18:01;7.53;;;5.65;;
64052;SDS011;50299;49.524;8.536;2023-10-19T04:20:34;6.50;;;5.82;;
64052;SDS011;50299;49.524;8.536;2023-10-19T04:23:27;6.90;;;5.53;;
64052;SDS011;50299;49.524;8.536;2023-10-19T04:25:55;6.38;;;5.38;;
64052;SDS011;50299;49.524;8.536;2023-10-19T04:28:22;6.80;;;5.63;;
64052;SDS011;50299;49.524;8.536;2023-10-19T04:31:05;6.97;;;5.00;;
64052;SDS011;50299;49.524;8.536;2023-10-19T04:33:32;7.97;;;5.72;;
64052;SDS011;50299;49.524;8.536;2023-10-19T04:36:02;5.63;;;4.45;;
64052;SDS011;50299;49.524;8.536;2023-10-19T04:38:29;8.80;;;4.95;;
64052;SDS011;50299;49.524;8.536;2023-10-19T04:41:09;7.60;;;5.07;;
64052;SDS011;50299;49.524;8.536;2023-10-19T04:43:37;5.60;;;4.45;;
64052;SDS011;50299;49.524;8.536;2023-10-19T04:46:06;6.75;;;5.10;;
64052;SDS011;50299;49.524;8.536;2023-10-19T04:48:40;8.43;;;5.07;;
64052;SDS011;50299;49.524;8.536;2023-10-19T04:51:08;8.70;;;5.25;;
64052;SDS011;50299;49.524;8.536;2023-10-19T04:53:36;8.95;;;5.53;;
64052;SDS011;50299;49.524;8.536;2023-10-19T04:56:06;6.65;;;5.60;;
64052;SDS011;50299;49.524;8.536;2023-10-19T04:58:35;5.95;;;4.32;;
64052;SDS011;50299;49.524;8.536;2023-10-19T05:01:02;8.75;;;4.80;;
64052;SDS011;50299;49.524;8.536;2023-10-19T05:03:30;6.78;;;5.57;;
64052;SDS011;50299;49.524;8.536;2023-10-19T05:05:56;7.43;;;5.03;;
64052;SDS011;50299;49.524;8.536;2023-10-19T05:08:23;9.68;;;5.20;;
64052;SDS011;50299;49.524;8.536;2023-10-19T05:10:54;7.40;;;5.20;;
64052;SDS011;50299;49.524;8.536;2023-10-19T05:13:24;6.63;;;5.13;;
64052;SDS011;50299;49.524;8.536;2023-10-19T05:15:55;5.15;;;4.45;;
64052;SDS011;50299;49.524;8.536;2023-10-19T05:18:22;5.50;;;4.50;;
64052;SDS011;50299;49.524;8.536;2023-10-19T05:20:49;5.90;;;5.28;;
64052;SDS011;50299;49.524;8.536;2023-10-19T05:23:24;5.80;;;4.38;;
64052;SDS011;50299;49.524;8.536;2023-10-19T05:25:52;6.07;;;4.47;;
64052;SDS011;50299;49.524;8.536;2023-10-19T05:28:20;6.38;;;4.68;;
64052;SDS011;50299;49.524;8.536;2023-10-19T05:30:48;8.13;;;5.13;;
64052;SDS011;50299;49.524;8.536;2023-10-19T05:33:17;6.13;;;4.85;;
64052;SDS011;50299;49.524;8.536;2023-10-19T05:35:49;5.85;;;4.68;;
64052;SDS011;50299;49.524;8.536;2023-10-19T05:38:17;6.97;;;4.97;;
64052;SDS011;50299;49.524;8.536;2023-10-19T05:40:45;5.18;;;4.43;;
64052;SDS011;50299;49.524;8.536;2023-10-19T05:43:12;7.50;;;5.00;;
64052;SDS011;50299;49.524;8.536;2023-10-19T05:45:38;10.23;;;5.10;;
64052;SDS011;50299;49.524;8.536;2023-10-19T05:48:07;8.95;;;4.43;;
64052;SDS011;50299;49.524;8.536;2023-10-19T05:50:34;6.82;;;5.57;;
64052;SDS011;50299;49.524;8.536;2023-10-19T05:53:02;6.57;;;5.03;;
64052;SDS011;50299;49.524;8.536;2023-10-19T05:55:29;6.90;;;5.40;;
64052;SDS011;50299;49.524;8.536;2023-10-19T05:57:56;7.10;;;4.93;;
64052;SDS011;50299;49.524;8.536;2023-10-19T06:00:22;5.97;;;4.47;;
64052;SDS011;50299;49.524;8.536;2023-10-19T06:02:52;5.80;;;4.57;;
64052;SDS011;50299;49.524;8.536;2023-10-19T06:05:19;7.78;;;4.85;;
64052;SDS011;50299;49.524;8.536;2023-10-19T06:07:46;6.15;;;4.47;;
64052;SDS011;50299;49.524;8.536;2023-10-19T06:10:20;9.60;;;5.13;;
64052;SDS011;50299;49.524;8.536;2023-10-19T06:12:49;6.22;;;4.75;;
64052;SDS011;50299;49.524;8.536;2023-10-19T06:15:17;7.43;;;4.70;;
64052;SDS011;50299;49.524;8.536;2023-10-19T06:17:47;5.30;;;4.45;;
64052;SDS011;50299;49.524;8.536;2023-10-19T06:20:14;5.90;;;4.43;;
64052;SDS011;50299;49.524;8.536;2023-10-19T06:22:51;4.97;;;4.25;;
64052;SDS011;50299;49.524;8.536;2023-10-19T06:25:21;8.32;;;4.60;;
64052;SDS011;50299;49.524;8.536;2023-10-19T06:27:49;4.70;;;3.97;;
64052;SDS011;50299;49.524;8.536;2023-10-19T06:30:18;5.07;;;4.63;;
64052;SDS011;50299;49.524;8.536;2023-10-19T06:32:46;6.45;;;4.82;;
64052;SDS011;50299;49.524;8.536;2023-10-19T06:35:15;6.13;;;5.00;;
64052;SDS011;50299;49.524;8.536;2023-10-19T06:37:41;6.00;;;4.20;;
64052;SDS011;50299;49.524;8.536;2023-10-19T06:40:09;8.48;;;5.20;;
64052;SDS011;50299;49.524;8.536;2023-10-19T06:42:38;5.47;;;4.93;;
64052;SDS011;50299;49.524;8.536;2023-10-19T06:45:07;7.93;;;5.40;;
64052;SDS011;50299;49.524;8.536;2023-10-19T06:47:46;6.65;;;4.97;;
64052;SDS011;50299;49.524;8.536;2023-10-19T06:50:15;4.93;;;4.30;;
64052;SDS011;50299;49.524;8.536;2023-10-19T06:52:43;4.30;;;3.65;;
64052;SDS011;50299;49.524;8.536;2023-10-19T06:55:11;4.18;;;3.80;;
64052;SDS011;50299;49.524;8.536;2023-10-19T06:57:43;5.00;;;3.95;;
64052;SDS011;50299;49.524;8.536;2023-10-19T07:00:11;6.15;;;4.90;;
64052;SDS011;50299;49.524;8.536;2023-10-19T07:02:42;5.45;;;4.15;;
64052;SDS011;50299;49.524;8.536;2023-10-19T07:05:10;6.53;;;3.95;;
64052;SDS011;50299;49.524;8.536;2023-10-19T07:07:39;6.22;;;4.15;;
64052;SDS011;50299;49.524;8.536;2023-10-19T07:10:07;4.60;;;3.58;;
64052;SDS011;50299;49.524;8.536;2023-10-19T07:12:36;5.20;;;3.60;;
64052;SDS011;50299;49.524;8.536;2023-10-19T07:15:06;4.65;;;4.10;;
64052;SDS011;50299;49.524;8.536;2023-10-19T07:17:34;6.25;;;4.35;;
64052;SDS011;50299;49.524;8.536;2023-10-19T07:20:01;5.00;;;4.32;;
64052;SDS011;50299;49.524;8.536;2023-10-19T07:22:29;4.50;;;4.03;;
64052;SDS011;50299;49.524;8.536;2023-10-19T07:25:00;5.10;;;3.95;;
64052;SDS011;50299;49.524;8.536;2023-10-19T07:27:28;4.22;;;3.78;;
64052;SDS011;50299;49.524;8.536;2023-10-19T07:30:04;5.68;;;4.18;;
64052;SDS011;50299;49.524;8.536;2023-10-19T07:32:35;4.88;;;3.90;;
64052;SDS011;50299;49.524;8.536;2023-10-19T07:35:05;7.32;;;4.05;;
64052;SDS011;50299;49.524;8.536;2023-10-19T07:37:33;8.25;;;4.38;;
64052;SDS011;50299;49.524;8.536;2023-10-19T07:40:00;5.82;;;4.40;;
64052;SDS011;50299;49.524;8.536;2023-10-19T07:42:26;7.05;;;4.32;;
64052;SDS011;50299;49.524;8.536;2023-10-19T07:44:53;7.57;;;4.43;;
64052;SDS011;50299;49.524;8.536;2023-10-19T07:47:19;5.55;;;4.38;;
64052;SDS011;50299;49.524;8.536;2023-10-19T07:49:46;6.00;;;4.80;;
64052;SDS011;50299;49.524;8.536;2023-10-19T07:52:15;4.80;;;4.35;;
64052;SDS011;50299;49.524;8.536;2023-10-19T07:54:41;4.40;;;3.45;;
64052;SDS011;50299;49.524;8.536;2023-10-19T07:57:08;5.45;;;3.75;;
64052;SDS011;50299;49.524;8.536;2023-10-19T07:59:40;4.97;;;4.03;;
64052;SDS011;50299;49.524;8.536;2023-10-19T08:02:09;5.47;;;3.97;;
64052;SDS011;50299;49.524;8.536;2023-10-19T08:04:38;5.82;;;4.50;;
64052;SDS011;50299;49.524;8.536;2023-10-19T08:07:08;14.27;;;5.57;;
64052;SDS011;50299;49.524;8.536;2023-10-19T08:09:39;6.30;;;4.10;;
64052;SDS011;50299;49.524;8.536;2023-10-19T08:12:07;5.55;;;4.32;;
64052;SDS011;50299;49.524;8.536;2023-10-19T08:14:36;6.53;;;4.15;;
64052;SDS011;50299;49.524;8.536;2023-10-19T08:17:06;6.00;;;4.40;;
64052;SDS011;50299;49.524;8.536;2023-10-19T08:22:05;3.80;;;3.10;;
64052;SDS011;50299;49.524;8.536;2023-10-19T08:24:31;7.43;;;4.22;;
64052;SDS011;50299;49.524;8.536;2023-10-19T08:27:03;5.47;;;3.70;;
64052;SDS011;50299;49.524;8.536;2023-10-19T08:29:32;4.43;;;3.10;;
64052;SDS011;50299;49.524;8.536;2023-10-19T08:31:59;3.45;;;3.15;;
64052;SDS011;50299;49.524;8.536;2023-10-19T08:34:27;4.78;;;3.15;;
64052;SDS011;50299;49.524;8.536;2023-10-19T08:36:56;3.95;;;2.92;;
64052;SDS011;50299;49.524;8.536;2023-10-19T08:39:22;5.05;;;3.38;;
64052;SDS011;50299;49.524;8.536;2023-10-19T08:44:19;3.90;;;2.80;;
64052;SDS011;50299;49.524;8.536;2023-10-19T08:46:46;4.78;;;3.03;;
64052;SDS011;50299;49.524;8.536;2023-10-19T08:49:17;4.35;;;3.05;;
64052;SDS011;50299;49.524;8.536;2023-10-19T08:51:46;3.40;;;3.10;;
64052;SDS011;50299;49.524;8.536;2023-10-19T08:54:13;2.72;;;2.53;;
64052;SDS011;50299;49.524;8.536;2023-10-19T08:56:43;3.35;;;2.97;;
64052;SDS011;50299;49.524;8.536;2023-10-19T08:59:11;3.15;;;2.60;;
64052;SDS011;50299;49.524;8.536;2023-10-19T09:01:37;5.28;;;2.88;;
64052;SDS011;50299;49.524;8.536;2023-10-19T09:04:05;3.70;;;3.03;;
64052;SDS011;50299;49.524;8.536;2023-10-19T09:06:34;4.35;;;2.88;;
64052;SDS011;50299;49.524;8.536;2023-10-19T09:09:14;6.13;;;3.30;;
64052;SDS011;50299;49.524;8.536;2023-10-19T09:11:46;4.85;;;2.92;;
64052;SDS011;50299;49.524;8.536;2023-10-19T09:14:19;3.85;;;3.25;;
64052;SDS011;50299;49.524;8.536;2023-10-19T09:16:59;3.75;;;2.78;;
64052;SDS011;50299;49.524;8.536;2023-10-19T09:19:35;5.18;;;2.78;;
64052;SDS011;50299;49.524;8.536;2023-10-19T09:22:04;3.00;;;2.70;;
64052;SDS011;50299;49.524;8.536;2023-10-19T09:24:34;3.42;;;2.80;;
64052;SDS011;50299;49.524;8.536;2023-10-19T09:27:03;3.63;;;3.28;;
64052;SDS011;50299;49.524;8.536;2023-10-19T09:29:30;3.75;;;3.13;;
64052;SDS011;50299;49.524;8.536;2023-10-19T09:32:02;3.15;;;2.60;;
64052;SDS011;50299;49.524;8.536;2023-10-19T09:34:31;4.20;;;2.65;;
64052;SDS011;50299;49.524;8.536;2023-10-19T09:37:01;4.00;;;2.88;;
64052;SDS011;50299;49.524;8.536;2023-10-19T09:39:29;2.97;;;2.58;;
64052;SDS011;50299;49.524;8.536;2023-10-19T09:42:05;3.22;;;2.92;;
64052;SDS011;50299;49.524;8.536;2023-10-19T09:44:34;4.50;;;2.67;;
64052;SDS011;50299;49.524;8.536;2023-10-19T09:47:13;4.28;;;3.30;;
64052;SDS011;50299;49.524;8.536;2023-10-19T09:49:45;2.88;;;2.58;;
64052;SDS011;50299;49.524;8.536;2023-10-19T09:52:16;5.80;;;3.10;;
64052;SDS011;50299;49.524;8.536;2023-10-19T09:54:51;4.00;;;3.03;;
64052;SDS011;50299;49.524;8.536;2023-10-19T09:57:46;3.08;;;2.78;;
64052;SDS011;50299;49.524;8.536;2023-10-19T10:00:17;3.22;;;2.83;;
64052;SDS011;50299;49.524;8.536;2023-10-19T10:02:50;4.32;;;3.00;;
64052;SDS011;50299;49.524;8.536;2023-10-19T10:10:44;3.20;;;2.72;;
64052;SDS011;50299;49.524;8.536;2023-10-19T10:15:58;4.20;;;2.78;;
64052;SDS011;50299;49.524;8.536;2023-10-19T10:18:26;3.00;;;2.42;;
64052;SDS011;50299;49.524;8.536;2023-10-19T10:23:39;4.05;;;2.55;;
64052;SDS011;50299;49.524;8.536;2023-10-19T10:26:07;3.45;;;2.47;;
64052;SDS011;50299;49.524;8.536;2023-10-19T10:28:35;2.78;;;2.13;;
64052;SDS011;50299;49.524;8.536;2023-10-19T10:31:14;3.85;;;2.28;;
64052;SDS011;50299;49.524;8.536;2023-10-19T10:33:51;2.63;;;2.38;;
64052;SDS011;50299;49.524;8.536;2023-10-19T10:36:20;2.75;;;2.50;;
64052;SDS011;50299;49.524;8.536;2023-10-19T10:38:48;2.60;;;2.00;;
64052;SDS011;50299;49.524;8.536;2023-10-19T10:41:19;2.45;;;2.00;;
64052;SDS011;50299;49.524;8.536;2023-10-19T10:43:55;2.97;;;2.38;;
64052;SDS011;50299;49.524;8.536;2023-10-19T10:46:23;2.95;;;2.65;;
64052;SDS011;50299;49.524;8.536;2023-10-19T10:48:51;3.22;;;2.35;;
64052;SDS011;50299;49.524;8.536;2023-10-19T10:51:19;2.75;;;2.00;;
64052;SDS011;50299;49.524;8.536;2023-10-19T10:53:53;2.08;;;1.88;;
64052;SDS011;50299;49.524;8.536;2023-10-19T10:56:21;2.80;;;2.45;;
64052;SDS011;50299;49.524;8.536;2023-10-19T10:58:52;2.38;;;2.15;;
64052;SDS011;50299;49.524;8.536;2023-10-19T11:01:29;3.38;;;2.10;;
64052;SDS011;50299;49.524;8.536;2023-10-19T11:04:07;5.00;;;2.17;;
64052;SDS011;50299;49.524;8.536;2023-10-19T11:06:50;2.30;;;2.10;;
64052;SDS011;50299;49.524;8.536;2023-10-19T11:09:19;3.50;;;1.60;;
64052;SDS011;50299;49.524;8.536;2023-10-19T11:11:46;2.80;;;1.90;;
64052;SDS011;50299;49.524;8.536;2023-10-19T11:14:12;3.08;;;1.65;;
64052;SDS011;50299;49.524;8.536;2023-10-19T11:16:39;2.92;;;1.98;;
64052;SDS011;50299;49.524;8.536;2023-10-19T11:19:06;2.15;;;1.77;;
64052;SDS011;50299;49.524;8.536;2023-10-19T11:21:32;3.88;;;1.85;;
64052;SDS011;50299;49.524;8.536;2023-10-19T11:24:00;3.88;;;2.47;;
64052;SDS011;50299;49.524;8.536;2023-10-19T11:26:27;1.88;;;1.55;;
64052;SDS011;50299;49.524;8.536;2023-10-19T11:29:00;3.65;;;2.30;;
64052;SDS011;50299;49.524;8.536;2023-10-19T11:31:28;2.40;;;2.08;;
64052;SDS011;50299;49.524;8.536;2023-10-19T11:34:03;1.77;;;1.67;;
64052;SDS011;50299;49.524;8.536;2023-10-19T11:36:35;2.75;;;2.17;;
64052;SDS011;50299;49.524;8.536;2023-10-19T11:39:01;2.92;;;2.00;;
64052;SDS011;50299;49.524;8.536;2023-10-19T11:41:30;6.30;;;1.85;;
64052;SDS011;50299;49.524;8.536;2023-10-19T11:43:57;3.90;;;2.13;;
64052;SDS011;50299;49.524;8.536;2023-10-19T11:46:23;3.97;;;2.00;;
64052;SDS011;50299;49.524;8.536;2023-10-19T11:48:51;2.70;;;2.00;;
64052;SDS011;50299;49.524;8.536;2023-10-19T11:51:18;2.53;;;1.90;;
64052;SDS011;50299;49.524;8.536;2023-10-19T11:53:44;1.70;;;1.60;;
64052;SDS011;50299;49.524;8.536;2023-10-19T11:56:12;2.65;;;2.28;;
64052;SDS011;50299;49.524;8.536;2023-10-19T11:58:39;2.35;;;2.17;;
64052;SDS011;50299;49.524;8.536;2023-10-19T12:01:08;2.53;;;2.25;;
64052;SDS011;50299;49.524;8.536;2023-10-19T12:03:41;2.72;;;2.35;;
64052;SDS011;50299;49.524;8.536;2023-10-19T12:06:10;2.28;;;1.90;;
64052;SDS011;50299;49.524;8.536;2023-10-19T12:08:37;4.15;;;2.35;;
64052;SDS011;50299;49.524;8.536;2023-10-19T12:11:04;3.97;;;2.40;;
64052;SDS011;50299;49.524;8.536;2023-10-19T12:13:41;3.00;;;1.85;;
64052;SDS011;50299;49.524;8.536;2023-10-19T12:16:12;2.20;;;1.85;;
64052;SDS011;50299;49.524;8.536;2023-10-19T12:18:42;2.25;;;2.03;;
64052;SDS011;50299;49.524;8.536;2023-10-19T12:21:09;3.15;;;2.60;;
64052;SDS011;50299;49.524;8.536;2023-10-19T12:23:41;4.57;;;2.92;;
64052;SDS011;50299;49.524;8.536;2023-10-19T12:26:10;4.40;;;2.42;;
64052;SDS011;50299;49.524;8.536;2023-10-19T12:28:41;4.10;;;2.60;;
64052;SDS011;50299;49.524;8.536;2023-10-19T12:31:07;2.95;;;2.67;;
64052;SDS011;50299;49.524;8.536;2023-10-19T12:33:35;3.67;;;2.45;;
64052;SDS011;50299;49.524;8.536;2023-10-19T12:36:02;3.75;;;2.83;;
64052;SDS011;50299;49.524;8.536;2023-10-19T12:38:48;5.57;;;2.72;;
64052;SDS011;50299;49.524;8.536;2023-10-19T12:41:15;6.15;;;3.40;;
64052;SDS011;50299;49.524;8.536;2023-10-19T12:43:43;4.22;;;2.85;;
64052;SDS011;50299;49.524;8.536;2023-10-19T12:46:10;4.45;;;2.63;;
64052;SDS011;50299;49.524;8.536;2023-10-19T12:48:38;2.97;;;2.67;;
64052;SDS011;50299;49.524;8.536;2023-10-19T12:51:04;3.88;;;3.05;;
64052;SDS011;50299;49.524;8.536;2023-10-19T12:53:37;5.63;;;2.90;;
64052;SDS011;50299;49.524;8.536;2023-10-19T12:56:07;5.80;;;2.90;;
64052;SDS011;50299;49.524;8.536;2023-10-19T12:58:37;4.05;;;3.05;;
64052;SDS011;50299;49.524;8.536;2023-10-19T13:01:04;4.30;;;2.85;;
64052;SDS011;50299;49.524;8.536;2023-10-19T13:03:43;3.22;;;2.83;;
64052;SDS011;50299;49.524;8.536;2023-10-19T13:06:13;3.33;;;3.03;;
64052;SDS011;50299;49.524;8.536;2023-10-19T13:08:40;4.55;;;3.78;;
64052;SDS011;50299;49.524;8.536;2023-10-19T13:11:07;4.15;;;3.55;;
64052;SDS011;50299;49.524;8.536;2023-10-19T13:13:43;3.17;;;2.90;;
64052;SDS011;50299;49.524;8.536;2023-10-19T13:16:10;4.55;;;3.42;;
64052;SDS011;50299;49.524;8.536;2023-10-19T13:18:37;6.20;;;3.45;;
64052;SDS011;50299;49.524;8.536;2023-10-19T13:23:35;3.97;;;3.38;;
64052;SDS011;50299;49.524;8.536;2023-10-19T13:26:02;3.78;;;3.38;;
64052;SDS011;50299;49.524;8.536;2023-10-19T13:28:41;7.88;;;3.17;;
64052;SDS011;50299;49.524;8.536;2023-10-19T13:31:07;3.85;;;2.95;;
64052;SDS011;50299;49.524;8.536;2023-10-19T13:33:40;3.45;;;3.05;;
64052;SDS011;50299;49.524;8.536;2023-10-19T13:36:10;5.88;;;3.35;;
64052;SDS011;50299;49.524;8.536;2023-10-19T13:38:37;5.22;;;3.13;;
64052;SDS011;50299;49.524;8.536;2023-10-19T13:41:04;3.97;;;3.53;;
64052;SDS011;50299;49.524;8.536;2023-10-19T13:43:34;4.70;;;3.70;;
64052;SDS011;50299;49.524;8.536;2023-10-19T13:46:04;3.92;;;3.53;;
64052;SDS011;50299;49.524;8.536;2023-10-19T13:48:31;5.03;;;3.47;;
64052;SDS011;50299;49.524;8.536;2023-10-19T13:50:58;3.35;;;2.83;;
64052;SDS011;50299;49.524;8.536;2023-10-19T13:53:38;5.40;;;3.70;;
64052;SDS011;50299;49.524;8.536;2023-10-19T13:56:09;4.40;;;2.80;;
64052;SDS011;50299;49.524;8.536;2023-10-19T13:58:37;4.18;;;3.72;;
64052;SDS011;50299;49.524;8.536;2023-10-19T14:01:07;6.07;;;4.40;;
64052;SDS011;50299;49.524;8.536;2023-10-19T14:03:40;5.20;;;4.40;;
64052;SDS011;50299;49.524;8.536;2023-10-19T14:06:14;4.97;;;4.50;;
64052;SDS011;50299;49.524;8.536;2023-10-19T14:08:41;4.55;;;3.30;;
64052;SDS011;50299;49.524;8.536;2023-10-19T14:11:08;5.45;;;4.28;;
64052;SDS011;50299;49.524;8.536;2023-10-19T14:13:36;4.97;;;3.70;;
64052;SDS011;50299;49.524;8.536;2023-10-19T14:16:06;3.67;;;3.30;;
64052;SDS011;50299;49.524;8.536;2023-10-19T14:18:35;4.60;;;4.10;;
64052;SDS011;50299;49.524;8.536;2023-10-19T14:21:12;4.82;;;4.35;;
64052;SDS011;50299;49.524;8.536;2023-10-19T14:23:40;4.70;;;3.42;;
64052;SDS011;50299;49.524;8.536;2023-10-19T14:26:07;4.72;;;3.75;;
64052;SDS011;50299;49.524;8.536;2023-10-19T14:28:35;4.80;;;4.28;;
64052;SDS011;50299;49.524;8.536;2023-10-19T14:31:02;4.10;;;3.10;;
64052;SDS011;50299;49.524;8.536;2023-10-19T14:33:30;3.97;;;3.47;;
64052;SDS011;50299;49.524;8.536;2023-10-19T14:35:57;3.90;;;3.30;;
64052;SDS011;50299;49.524;8.536;2023-10-19T14:38:23;5.55;;;3.88;;
64052;SDS011;50299;49.524;8.536;2023-10-19T14:40:53;3.95;;;3.55;;
64052;SDS011;50299;49.524;8.536;2023-10-19T14:43:20;3.83;;;3.38;;
64052;SDS011;50299;49.524;8.536;2023-10-19T14:45:46;5.43;;;3.53;;
64052;SDS011;50299;49.524;8.536;2023-10-19T14:48:13;7.53;;;4.50;;
64052;SDS011;50299;49.524;8.536;2023-10-19T14:50:41;6.00;;;4.93;;
64052;SDS011;50299;49.524;8.536;2023-10-19T14:53:09;5.32;;;3.78;;
64052;SDS011;50299;49.524;8.536;2023-10-19T14:55:35;7.20;;;4.30;;
64052;SDS011;50299;49.524;8.536;2023-10-19T14:58:02;5.20;;;3.75;;
64052;SDS011;50299;49.524;8.536;2023-10-19T15:00:29;7.22;;;4.40;;
64052;SDS011;50299;49.524;8.536;2023-10-19T15:03:04;7.68;;;4.40;;
64052;SDS011;50299;49.524;8.536;2023-10-19T15:05:35;6.70;;;4.88;;
64052;SDS011;50299;49.524;8.536;2023-10-19T15:08:03;5.82;;;4.50;;
64052;SDS011;50299;49.524;8.536;2023-10-19T15:10:31;4.75;;;4.28;;
64052;SDS011;50299;49.524;8.536;2023-10-19T15:12:58;5.80;;;4.43;;
64052;SDS011;50299;49.524;8.536;2023-10-19T15:15:25;7.50;;;4.55;;
64052;SDS011;50299;49.524;8.536;2023-10-19T15:17:52;6.22;;;5.00;;
64052;SDS011;50299;49.524;8.536;2023-10-19T15:20:20;5.03;;;4.55;;
64052;SDS011;50299;49.524;8.536;2023-10-19T15:22:48;5.10;;;4.53;;
64052;SDS011;50299;49.524;8.536;2023-10-19T15:25:15;4.80;;;4.30;;
64052;SDS011;50299;49.524;8.536;2023-10-19T15:27:46;5.03;;;4.30;;